LICC/CTA METAR and TAF weather

Enter ICAO airport designator
Station Type Date Time Source
LICC METAR 2020/09/24 12:20 UTC NOAA

LICC 241220Z 13007KT CAVOK 29/20 Q1014


Station Type Date Time Source
LICC Decoded METAR 2020/09/24 12:20 UTC NOAA

Catania / Fontanarossa, Italy (LICC) 37-28N 015-03E 17M
Sep 24, 2020 - 08:20 AM EDT / 2020.09.24 1220 UTC
Wind: from the SE (130 degrees) at 8 MPH (7 KT):0
Visibility: greater than 7 mile(s):0
Temperature: 84 F (29 C)
Dew Point: 68 F (20 C)
Relative Humidity: 58%
Pressure (altimeter): 29.94 in. Hg (1014 hPa)
ob: LICC 241220Z 13007KT CAVOK 29/20 Q1014
cycle: 12

Station Type Date Time Source
LICC TAF 2020/09/24 12:21 UTC NOAA

TAF LICC 241100Z 2412/2512 10010KT 9999 SCT035
BECMG 2420/2422 24008KT
BECMG 2507/2509 26015G25KT
TEMPO 2510/2512 RA

Example: see airport list